createdAt,value
2018-06-13T00:00:09.831Z,0
2018-06-13T00:01:09.778Z,0
2018-06-13T00:02:09.252Z,0
2018-06-13T00:03:09.505Z,0
2018-06-13T00:04:09.498Z,0
2018-06-13T00:05:09.502Z,0
2018-06-13T00:06:09.233Z,0
2018-06-13T00:07:09.740Z,0
2018-06-13T00:08:09.479Z,0
2018-06-13T00:09:09.219Z,0
2018-06-13T00:10:09.487Z,0
2018-06-13T00:11:09.737Z,0
2018-06-13T00:12:09.217Z,0
2018-06-13T00:13:09.729Z,0
2018-06-13T00:14:09.735Z,0
2018-06-13T00:15:09.476Z,0
2018-06-13T00:16:09.452Z,0
2018-06-13T00:17:09.452Z,0
2018-06-13T00:18:09.708Z,0
2018-06-13T00:19:08.941Z,0
2018-06-13T00:20:09.704Z,0
2018-06-13T00:21:09.436Z,0
2018-06-13T00:22:09.465Z,0
2018-06-13T00:23:09.433Z,0
2018-06-13T00:24:09.434Z,0
2018-06-13T00:25:09.416Z,0
2018-06-13T00:26:09.172Z,0
2018-06-13T00:27:09.689Z,0
2018-06-13T00:28:09.660Z,0
2018-06-13T00:29:09.409Z,0
2018-06-13T00:30:09.671Z,0
2018-06-13T00:31:09.398Z,0
2018-06-13T00:32:09.389Z,0
2018-06-13T00:33:09.663Z,0
2018-06-13T00:34:09.388Z,0
2018-06-13T00:35:09.121Z,0
2018-06-13T00:36:09.377Z,0
2018-06-13T00:37:09.585Z,0
2018-06-13T00:38:09.376Z,0
2018-06-13T00:39:09.619Z,0
2018-06-13T00:40:09.619Z,0
2018-06-13T00:41:09.363Z,0
2018-06-13T00:42:09.351Z,0
2018-06-13T00:43:09.358Z,0
2018-06-13T00:44:09.626Z,0
2018-06-13T00:45:09.088Z,0
2018-06-13T00:46:09.595Z,0
2018-06-13T00:47:09.231Z,0
2018-06-13T00:48:09.591Z,0
2018-06-13T00:49:09.075Z,0
2018-06-13T00:50:09.325Z,0
2018-06-13T00:51:09.347Z,0
2018-06-13T00:52:09.575Z,0
2018-06-13T00:53:09.318Z,0
2018-06-13T00:54:09.562Z,0
2018-06-13T00:55:09.311Z,0
2018-06-13T00:56:09.297Z,0
2018-06-13T00:57:09.570Z,0
2018-06-13T00:58:09.295Z,0
2018-06-13T00:59:09.552Z,0
2018-06-13T01:00:09.039Z,0
2018-06-13T01:01:09.558Z,0
2018-06-13T01:02:09.030Z,0
2018-06-13T01:03:09.284Z,0
2018-06-13T01:04:09.266Z,0
2018-06-13T01:05:09.528Z,0
2018-06-13T01:06:09.525Z,0
2018-06-13T01:07:08.752Z,0
2018-06-13T01:08:09.265Z,0
2018-06-13T01:09:09.252Z,0
2018-06-13T01:10:09.015Z,0
2018-06-13T01:11:09.513Z,0
2018-06-13T01:12:09.246Z,0
2018-06-13T01:13:09.246Z,0
2018-06-13T01:14:08.985Z,0
2018-06-13T01:15:09.254Z,0
2018-06-13T01:16:09.514Z,0
2018-06-13T01:17:09.230Z,0
2018-06-13T01:18:08.959Z,0
2018-06-13T01:19:09.475Z,0
2018-06-13T01:20:09.210Z,0
2018-06-13T01:21:08.948Z,0
2018-06-13T01:22:09.198Z,0
2018-06-13T01:23:09.453Z,0
2018-06-13T01:24:09.190Z,0
2018-06-13T01:25:09.253Z,0
2018-06-13T01:26:09.255Z,0
2018-06-13T01:27:09.443Z,0
2018-06-13T01:28:09.457Z,0
2018-06-13T01:29:09.217Z,0
2018-06-13T01:30:09.173Z,0
2018-06-13T01:31:09.169Z,0
2018-06-13T01:32:09.453Z,0
2018-06-13T01:33:09.410Z,0
2018-06-13T01:34:09.153Z,0
2018-06-13T01:35:09.432Z,0
2018-06-13T01:36:09.144Z,0
2018-06-13T01:37:09.414Z,0
2018-06-13T01:38:09.137Z,0
2018-06-13T01:39:09.388Z,0
2018-06-13T01:40:09.408Z,0
2018-06-13T01:41:08.865Z,0
2018-06-13T01:42:09.130Z,0
2018-06-13T01:43:09.115Z,0
2018-06-13T01:44:09.108Z,0
2018-06-13T01:45:09.365Z,0
2018-06-13T01:46:09.113Z,0
2018-06-13T01:47:09.363Z,0
2018-06-13T01:48:09.360Z,0
2018-06-13T01:49:09.090Z,0
2018-06-13T01:50:09.347Z,0
2018-06-13T01:51:09.353Z,0
2018-06-13T01:52:08.824Z,0
2018-06-13T01:53:09.072Z,0
2018-06-13T01:54:09.549Z,0
2018-06-13T01:55:09.070Z,0
2018-06-13T01:56:09.063Z,0
2018-06-13T01:57:09.065Z,0
2018-06-13T01:58:09.060Z,0
2018-06-13T01:59:09.307Z,0
2018-06-13T02:00:09.305Z,0
2018-06-13T02:01:09.312Z,0
2018-06-13T02:02:09.049Z,0
2018-06-13T02:03:08.828Z,4
2018-06-13T02:04:09.037Z,4
2018-06-13T02:05:08.515Z,4
2018-06-13T02:06:09.294Z,0
2018-06-13T02:07:09.290Z,0
2018-06-13T02:08:09.034Z,4
2018-06-13T02:09:09.017Z,4
2018-06-13T02:10:08.750Z,4
2018-06-13T02:11:09.265Z,4
2018-06-13T02:12:08.997Z,4
2018-06-13T02:13:09.283Z,8
2018-06-13T02:14:08.739Z,4
2018-06-13T02:15:09.264Z,8
2018-06-13T02:16:09.280Z,8
2018-06-13T02:17:09.228Z,8
2018-06-13T02:18:08.985Z,12
2018-06-13T02:19:08.707Z,12
2018-06-13T02:20:08.961Z,12
2018-06-13T02:21:08.966Z,12
2018-06-13T02:22:09.215Z,12
2018-06-13T02:23:09.203Z,20
2018-06-13T02:24:08.943Z,20
2018-06-13T02:25:08.947Z,20
2018-06-13T02:26:08.934Z,24
2018-06-13T02:27:08.676Z,24
2018-06-13T02:28:09.181Z,32
2018-06-13T02:29:09.188Z,28
2018-06-13T02:30:08.930Z,36
2018-06-13T02:31:08.659Z,36
2018-06-13T02:32:08.914Z,44
2018-06-13T02:33:08.921Z,44
2018-06-13T02:34:09.162Z,52
2018-06-13T02:35:08.915Z,56
2018-06-13T02:36:08.919Z,60
2018-06-13T02:37:09.146Z,64
2018-06-13T02:38:08.884Z,72
2018-06-13T02:39:09.136Z,76
2018-06-13T02:40:08.646Z,76
2018-06-13T02:41:09.145Z,80
2018-06-13T02:42:08.873Z,84
2018-06-13T02:43:08.606Z,92
2018-06-13T02:44:09.121Z,96
2018-06-13T02:45:09.113Z,104
2018-06-13T02:46:08.852Z,104
2018-06-13T02:47:09.108Z,108
2018-06-13T02:48:09.095Z,112
2018-06-13T02:49:09.100Z,116
2018-06-13T02:50:08.575Z,116
2018-06-13T02:51:08.318Z,124
2018-06-13T02:52:08.821Z,128
2018-06-13T02:53:09.084Z,136
2018-06-13T02:54:08.823Z,144
2018-06-13T02:55:08.810Z,148
2018-06-13T02:56:08.829Z,160
2018-06-13T02:57:08.811Z,172
2018-06-13T02:58:09.055Z,184
2018-06-13T02:59:08.800Z,196
2018-06-13T03:00:08.539Z,208
2018-06-13T03:01:08.782Z,228
2018-06-13T03:02:09.041Z,240
2018-06-13T03:03:08.771Z,256
2018-06-13T03:04:08.518Z,280
2018-06-13T03:05:09.023Z,304
2018-06-13T03:06:08.499Z,332
2018-06-13T03:07:08.754Z,364
2018-06-13T03:08:08.750Z,400
2018-06-13T03:09:08.755Z,436
2018-06-13T03:10:09.012Z,472
2018-06-13T03:11:08.735Z,508
2018-06-13T03:12:08.737Z,556
2018-06-13T03:13:08.737Z,604
2018-06-13T03:14:08.983Z,664
2018-06-13T03:15:08.745Z,712
2018-06-13T03:16:08.713Z,772
2018-06-13T03:17:08.706Z,844
2018-06-13T03:18:08.750Z,928
2018-06-13T03:19:08.957Z,1000
2018-06-13T03:20:08.692Z,1060
2018-06-13T03:21:08.687Z,1092
2018-06-13T03:22:08.945Z,1112
2018-06-13T03:23:08.681Z,1144
2018-06-13T03:24:08.415Z,1196
2018-06-13T03:25:08.410Z,1260
2018-06-13T03:26:08.937Z,1316
2018-06-13T03:27:08.922Z,1368
2018-06-13T03:28:08.912Z,1392
2018-06-13T03:29:08.664Z,1384
2018-06-13T03:30:08.664Z,1368
2018-06-13T03:31:08.904Z,1352
2018-06-13T03:32:08.380Z,1360
2018-06-13T03:33:08.372Z,1400
2018-06-13T03:34:08.369Z,1460
2018-06-13T03:35:08.888Z,1536
2018-06-13T03:36:08.890Z,1588
2018-06-13T03:37:08.880Z,1588
2018-06-13T03:38:08.354Z,1568
2018-06-13T03:39:08.603Z,1584
2018-06-13T03:40:08.919Z,1628
2018-06-13T03:41:09.189Z,1704
2018-06-13T03:42:08.855Z,1808
2018-06-13T03:43:08.332Z,1908
2018-06-13T03:44:08.588Z,1984
2018-06-13T03:45:08.581Z,2048
2018-06-13T03:46:08.571Z,2096
2018-06-13T03:47:08.314Z,2164
2018-06-13T03:48:08.821Z,2292
2018-06-13T03:49:08.559Z,2436
2018-06-13T03:50:08.299Z,2476
2018-06-13T03:51:08.553Z,2456
2018-06-13T03:52:08.291Z,2400
2018-06-13T03:53:08.290Z,2364
2018-06-13T03:54:08.285Z,2372
2018-06-13T03:55:08.537Z,2388
2018-06-13T03:56:08.020Z,2376
2018-06-13T03:57:08.784Z,2308
2018-06-13T03:58:08.805Z,2236
2018-06-13T03:59:08.774Z,2232
2018-06-13T04:00:08.772Z,2304
2018-06-13T04:01:08.512Z,2416
2018-06-13T04:02:08.505Z,2556
2018-06-13T04:03:08.245Z,2668
2018-06-13T04:04:08.497Z,2728
2018-06-13T04:05:08.510Z,2768
2018-06-13T04:06:08.755Z,2780
2018-06-13T04:07:08.585Z,2784
2018-06-13T04:08:08.481Z,2808
2018-06-13T04:09:08.478Z,2848
2018-06-13T04:10:08.482Z,2884
2018-06-13T04:11:08.475Z,2904
2018-06-13T04:12:08.731Z,2900
2018-06-13T04:13:08.689Z,2940
2018-06-13T04:14:08.469Z,3004
2018-06-13T04:15:08.461Z,3128
2018-06-13T04:16:08.678Z,3268
2018-06-13T04:17:08.656Z,3452
2018-06-13T04:18:08.158Z,3640
2018-06-13T04:19:08.142Z,3796
2018-06-13T04:20:08.392Z,3912
2018-06-13T04:21:08.139Z,3984
2018-06-13T04:22:08.642Z,4060
2018-06-13T04:23:08.640Z,4100
2018-06-13T04:24:08.629Z,4104
2018-06-13T04:25:08.119Z,4160
2018-06-13T04:26:08.124Z,4400
2018-06-13T04:27:08.622Z,4800
2018-06-13T04:28:08.612Z,5292
2018-06-13T04:29:08.366Z,5976
2018-06-13T04:30:08.353Z,6956
2018-06-13T04:31:08.347Z,7708
2018-06-13T04:32:08.344Z,8256
2018-06-13T04:33:08.342Z,8648
2018-06-13T04:34:08.345Z,8792
2018-06-13T04:35:08.340Z,9016
2018-06-13T04:36:08.333Z,9368
2018-06-13T04:37:08.073Z,9608
2018-06-13T04:38:08.337Z,9944
2018-06-13T04:39:08.624Z,10292
2018-06-13T04:40:08.581Z,10636
2018-06-13T04:41:08.571Z,10648
2018-06-13T04:42:08.707Z,10156
2018-06-13T04:43:08.305Z,9408
2018-06-13T04:44:08.313Z,8708
2018-06-13T04:45:08.358Z,8144
2018-06-13T04:46:08.559Z,7720
2018-06-13T04:47:08.549Z,7488
2018-06-13T04:48:08.295Z,7376
2018-06-13T04:49:08.288Z,7336
2018-06-13T04:50:08.542Z,7424
2018-06-13T04:51:08.283Z,7572
2018-06-13T04:52:08.536Z,7632
2018-06-13T04:53:08.280Z,7480
2018-06-13T04:54:08.536Z,7136
2018-06-13T04:55:08.526Z,6872
2018-06-13T04:56:08.272Z,6780
2018-06-13T04:57:08.517Z,6840
2018-06-13T04:58:08.268Z,7000
2018-06-13T04:59:08.514Z,7180
2018-06-13T05:00:08.527Z,7200
2018-06-13T05:01:07.997Z,6996
2018-06-13T05:02:08.506Z,6664
2018-06-13T05:03:08.247Z,6316
2018-06-13T05:04:08.241Z,5988
2018-06-13T05:05:08.242Z,5736
2018-06-13T05:06:08.494Z,5620
2018-06-13T05:07:08.235Z,5516
2018-06-13T05:08:08.237Z,5476
2018-06-13T05:09:08.482Z,5472
2018-06-13T05:10:08.480Z,5340
2018-06-13T05:11:08.222Z,5160
2018-06-13T05:12:08.236Z,4964
2018-06-13T05:13:07.965Z,4836
2018-06-13T05:14:08.470Z,4672
2018-06-13T05:15:08.470Z,4520
2018-06-13T05:16:08.207Z,4436
2018-06-13T05:17:08.204Z,4432
2018-06-13T05:18:08.203Z,4476
2018-06-13T05:19:08.257Z,4488
2018-06-13T05:20:07.942Z,4532
2018-06-13T05:21:08.446Z,4600
2018-06-13T05:22:08.192Z,4796
2018-06-13T05:23:08.465Z,5176
2018-06-13T05:24:08.433Z,5584
2018-06-13T05:25:08.178Z,6104
2018-06-13T05:26:08.189Z,6548
2018-06-13T05:27:08.176Z,6876
2018-06-13T05:28:08.171Z,7132
2018-06-13T05:29:07.915Z,7376
2018-06-13T05:30:07.920Z,7624
2018-06-13T05:31:08.421Z,7764
2018-06-13T05:32:08.418Z,7876
2018-06-13T05:33:08.172Z,7912
2018-06-13T05:34:08.408Z,7920
2018-06-13T05:35:08.625Z,7912
2018-06-13T05:36:08.410Z,7784
2018-06-13T05:37:08.397Z,7468
2018-06-13T05:38:08.396Z,7164
2018-06-13T05:39:08.179Z,6828
2018-06-13T05:40:07.888Z,6524
2018-06-13T05:41:07.881Z,6376
2018-06-13T05:42:08.148Z,6316
2018-06-13T05:43:08.379Z,6388
2018-06-13T05:44:08.427Z,6680
2018-06-13T05:45:08.164Z,7360
2018-06-13T05:46:08.149Z,8180
2018-06-13T05:47:08.393Z,8852
2018-06-13T05:48:08.382Z,9344
2018-06-13T05:49:07.855Z,9684
2018-06-13T05:50:08.364Z,9872
2018-06-13T05:51:07.848Z,9752
2018-06-13T05:52:07.848Z,9452
2018-06-13T05:53:08.120Z,9192
2018-06-13T05:54:08.095Z,8968
2018-06-13T05:55:08.530Z,8940
2018-06-13T05:56:08.104Z,9096
2018-06-13T05:57:07.844Z,9248
2018-06-13T05:58:08.347Z,9340
2018-06-13T05:59:08.337Z,9340
2018-06-13T06:00:08.083Z,9320
2018-06-13T06:01:07.828Z,9188
2018-06-13T06:02:08.340Z,8932
2018-06-13T06:03:08.072Z,8624
2018-06-13T06:04:08.079Z,8160
2018-06-13T06:05:08.071Z,7988
2018-06-13T06:06:08.074Z,8040
2018-06-13T06:07:08.082Z,8188
2018-06-13T06:08:07.811Z,8556
2018-06-13T06:09:08.375Z,9100
2018-06-13T06:10:08.315Z,9384
2018-06-13T06:11:08.317Z,9668
2018-06-13T06:12:08.308Z,10176
2018-06-13T06:13:08.047Z,10464
2018-06-13T06:14:08.295Z,10600
2018-06-13T06:15:08.041Z,10832
2018-06-13T06:16:07.785Z,11028
2018-06-13T06:17:08.288Z,11216
2018-06-13T06:18:08.053Z,11392
2018-06-13T06:19:07.792Z,11468
2018-06-13T06:20:08.049Z,11484
2018-06-13T06:21:07.584Z,11552
2018-06-13T06:22:08.033Z,11764
2018-06-13T06:23:08.322Z,11988
2018-06-13T06:24:07.546Z,12208
2018-06-13T06:25:08.289Z,12376
2018-06-13T06:26:07.795Z,12476
2018-06-13T06:27:08.292Z,12608
2018-06-13T06:28:08.292Z,12740
2018-06-13T06:29:08.263Z,12964
2018-06-13T06:30:08.266Z,13052
2018-06-13T06:31:07.769Z,13056
2018-06-13T06:32:08.041Z,13112
2018-06-13T06:33:08.267Z,13256
2018-06-13T06:34:08.005Z,13464
2018-06-13T06:35:08.015Z,13616
2018-06-13T06:36:08.263Z,13708
2018-06-13T06:37:08.270Z,13636
2018-06-13T06:38:08.006Z,13216
2018-06-13T06:39:08.008Z,12416
2018-06-13T06:40:07.741Z,11328
2018-06-13T06:41:07.998Z,10244
2018-06-13T06:42:07.778Z,9500
2018-06-13T06:43:07.984Z,9004
2018-06-13T06:44:08.254Z,8792
2018-06-13T06:45:08.267Z,8640
2018-06-13T06:46:07.736Z,8376
2018-06-13T06:47:08.268Z,7940
2018-06-13T06:48:07.995Z,7440
2018-06-13T06:49:08.250Z,6960
2018-06-13T06:50:07.990Z,6608
2018-06-13T06:51:08.033Z,6400
2018-06-13T06:52:08.262Z,6248
2018-06-13T06:53:07.728Z,6116
2018-06-13T06:54:08.242Z,6664
2018-06-13T06:55:08.252Z,6952
2018-06-13T06:56:07.738Z,6704
2018-06-13T06:57:07.993Z,6468
2018-06-13T06:58:08.386Z,6328
2018-06-13T06:59:07.709Z,6312
2018-06-13T07:00:07.704Z,6408
2018-06-13T07:01:07.980Z,6660
2018-06-13T07:02:07.969Z,7052
2018-06-13T07:03:07.971Z,7548
2018-06-13T07:04:07.729Z,8088
2018-06-13T07:05:07.956Z,8712
2018-06-13T07:06:07.948Z,9476
2018-06-13T07:07:07.943Z,10280
2018-06-13T07:08:08.200Z,11076
2018-06-13T07:09:08.205Z,11812
2018-06-13T07:10:07.980Z,12500
2018-06-13T07:11:07.689Z,13092
2018-06-13T07:12:07.680Z,13404
2018-06-13T07:13:08.224Z,13352
2018-06-13T07:14:08.194Z,13048
2018-06-13T07:15:07.942Z,12768
2018-06-13T07:16:07.668Z,12776
2018-06-13T07:17:08.185Z,13192
2018-06-13T07:18:07.919Z,13804
2018-06-13T07:19:08.149Z,14388
2018-06-13T07:20:07.924Z,14988
2018-06-13T07:21:07.905Z,15636
2018-06-13T07:22:07.667Z,16064
2018-06-13T07:23:07.958Z,16192
2018-06-13T07:24:08.184Z,15900
2018-06-13T07:25:08.410Z,15424
2018-06-13T07:26:07.903Z,14816
2018-06-13T07:27:07.904Z,13984
2018-06-13T07:28:07.649Z,13116
2018-06-13T07:29:08.163Z,12800
2018-06-13T07:30:07.897Z,13036
2018-06-13T07:31:07.636Z,13068
2018-06-13T07:32:08.145Z,12968
2018-06-13T07:33:07.639Z,13676
2018-06-13T07:34:08.165Z,16128
2018-06-13T07:35:07.884Z,17568
2018-06-13T07:36:07.938Z,17024
2018-06-13T07:37:08.151Z,16096
2018-06-13T07:38:07.639Z,14956
2018-06-13T07:39:07.890Z,14596
2018-06-13T07:40:08.134Z,15416
2018-06-13T07:41:07.633Z,16320
2018-06-13T07:42:07.917Z,16320
2018-06-13T07:43:07.621Z,15432
2018-06-13T07:44:07.875Z,14552
2018-06-13T07:45:08.150Z,14128
2018-06-13T07:46:07.624Z,14548
2018-06-13T07:47:07.873Z,16576
2018-06-13T07:48:07.613Z,18816
2018-06-13T07:49:07.865Z,20640
2018-06-13T07:50:07.623Z,21344
2018-06-13T07:51:07.895Z,21088
2018-06-13T07:52:07.868Z,19520
2018-06-13T07:53:08.128Z,18048
2018-06-13T07:54:07.674Z,17504
2018-06-13T07:55:08.292Z,17472
2018-06-13T07:56:07.942Z,17536
2018-06-13T07:57:08.165Z,18400
2018-06-13T07:58:07.606Z,19840
2018-06-13T07:59:08.166Z,20960
2018-06-13T08:00:07.873Z,21984
2018-06-13T08:01:08.111Z,23232
2018-06-13T08:02:07.641Z,24384
2018-06-13T08:03:07.901Z,25600
2018-06-13T08:04:07.850Z,26432
2018-06-13T08:05:07.862Z,27360
2018-06-13T08:06:07.859Z,27904
2018-06-13T08:07:08.113Z,28448
2018-06-13T08:08:08.101Z,28480
2018-06-13T08:09:07.856Z,28768
2018-06-13T08:10:08.141Z,29248
2018-06-13T08:11:08.102Z,29952
2018-06-13T08:12:08.120Z,30848
2018-06-13T08:13:07.619Z,31776
2018-06-13T08:14:08.132Z,29984
2018-06-13T08:15:08.143Z,26368
2018-06-13T08:16:07.819Z,24224
2018-06-13T08:17:07.880Z,22592
2018-06-13T08:18:07.838Z,22752
2018-06-13T08:19:08.145Z,24992
2018-06-13T08:20:07.638Z,26112
2018-06-13T08:21:07.866Z,26144
2018-06-13T08:22:08.347Z,26176
2018-06-13T08:23:08.135Z,26592
2018-06-13T08:24:08.161Z,25888
2018-06-13T08:25:07.875Z,24928
2018-06-13T08:26:07.995Z,24320
2018-06-13T08:27:07.658Z,25728
2018-06-13T08:28:07.650Z,27840
2018-06-13T08:29:07.920Z,30912
2018-06-13T08:30:08.149Z,33408
2018-06-13T08:31:08.163Z,30656
2018-06-13T08:32:08.150Z,28640
2018-06-13T08:33:07.391Z,28800
2018-06-13T08:34:08.162Z,30944
2018-06-13T08:35:07.927Z,36960
2018-06-13T08:36:07.904Z,54656
2018-06-13T08:37:08.205Z,60704
2018-06-13T08:38:07.920Z,35104
2018-06-13T08:39:07.950Z,30240
2018-06-13T08:40:07.964Z,25280
2018-06-13T08:41:07.948Z,21440
2018-06-13T08:42:07.687Z,17888
2018-06-13T08:43:07.701Z,14524
2018-06-13T08:44:08.217Z,12220
2018-06-13T08:45:08.192Z,11312
2018-06-13T08:46:08.197Z,11528
2018-06-13T08:47:07.949Z,12756
2018-06-13T08:48:08.199Z,14500
2018-06-13T08:49:07.981Z,16512
2018-06-13T08:50:08.214Z,18176
2018-06-13T08:51:08.999Z,20320
2018-06-13T08:52:08.317Z,22272
2018-06-13T08:53:07.977Z,23680
2018-06-13T08:54:08.396Z,24640
2018-06-13T08:55:07.975Z,24768
2018-06-13T08:56:08.548Z,24832
2018-06-13T08:57:08.000Z,25536
2018-06-13T08:58:08.256Z,25952
2018-06-13T08:59:07.745Z,25600
2018-06-13T09:00:07.739Z,24288
2018-06-13T09:01:08.331Z,22816
2018-06-13T09:02:08.456Z,22656
2018-06-13T09:03:08.304Z,22752
2018-06-13T09:04:08.287Z,23072
2018-06-13T09:05:08.299Z,24224
2018-06-13T09:06:08.047Z,27456
2018-06-13T09:07:08.008Z,28000
2018-06-13T09:08:08.021Z,29184
2018-06-13T09:09:08.468Z,29664
2018-06-13T09:10:07.563Z,28544
2018-06-13T09:11:08.032Z,27040
2018-06-13T09:12:08.297Z,27040
2018-06-13T09:13:08.025Z,27552
2018-06-13T09:14:08.038Z,28352
2018-06-13T09:15:07.899Z,28832
2018-06-13T09:16:08.056Z,30080
2018-06-13T09:17:08.315Z,30848
2018-06-13T09:18:08.516Z,29440
2018-06-13T09:19:08.053Z,27104
2018-06-13T09:20:08.503Z,25120
2018-06-13T09:21:08.072Z,23808
2018-06-13T09:22:08.071Z,23136
2018-06-13T09:23:08.334Z,22912
2018-06-13T09:24:08.063Z,23264
2018-06-13T09:25:08.120Z,23808
2018-06-13T09:26:08.116Z,24640
2018-06-13T09:27:08.088Z,25408
2018-06-13T09:28:08.335Z,26560
2018-06-13T09:29:08.357Z,27936
2018-06-13T09:30:07.588Z,29344
2018-06-13T09:31:07.901Z,30624
2018-06-13T09:32:08.345Z,30688
2018-06-13T09:33:08.118Z,29664
2018-06-13T09:34:08.195Z,27008
2018-06-13T09:35:08.164Z,24192
2018-06-13T09:36:08.383Z,21856
2018-06-13T09:37:08.163Z,19904
2018-06-13T09:38:07.873Z,17760
2018-06-13T09:39:08.152Z,15904
2018-06-13T09:40:07.885Z,14332
2018-06-13T09:41:08.449Z,13208
2018-06-13T09:42:08.177Z,12424
2018-06-13T09:43:08.422Z,11884
2018-06-13T09:44:08.307Z,11472
2018-06-13T09:45:08.400Z,11192
2018-06-13T09:46:16.821Z,11028
2018-06-13T09:47:26.099Z,10984
2018-06-13T09:48:08.169Z,11056
2018-06-13T09:49:08.425Z,11184
2018-06-13T09:50:08.282Z,11332
2018-06-13T09:51:07.901Z,11476
2018-06-13T09:52:08.481Z,11452
2018-06-13T09:53:08.171Z,11444
2018-06-13T09:54:08.464Z,11764
2018-06-13T09:55:08.458Z,12308
2018-06-13T09:56:08.194Z,12952
2018-06-13T09:57:08.439Z,13476
2018-06-13T09:58:08.183Z,14072
2018-06-13T09:59:07.947Z,14660
2018-06-13T10:00:08.217Z,15028
2018-06-13T10:01:07.694Z,15328
2018-06-13T10:02:08.246Z,15904
2018-06-13T10:03:08.201Z,16576
2018-06-13T10:04:08.534Z,17440
2018-06-13T10:05:08.245Z,18240
2018-06-13T10:06:08.597Z,19072
2018-06-13T10:07:08.466Z,19840
2018-06-13T10:08:08.486Z,20608
2018-06-13T10:09:08.513Z,21504
2018-06-13T10:10:08.213Z,22528
2018-06-13T10:11:08.215Z,23584
2018-06-13T10:12:07.998Z,24640
2018-06-13T10:13:08.261Z,25664
2018-06-13T10:14:08.247Z,26400
2018-06-13T10:15:08.473Z,26784
2018-06-13T10:16:08.216Z,26912
2018-06-13T10:17:08.484Z,26720
2018-06-13T10:18:08.491Z,26880
2018-06-13T10:19:08.480Z,28000
2018-06-13T10:20:07.973Z,29760
2018-06-13T10:21:08.226Z,30560
2018-06-13T10:22:08.315Z,31296
2018-06-13T10:23:08.228Z,31616
2018-06-13T10:24:08.230Z,32096
2018-06-13T10:25:08.252Z,32608
2018-06-13T10:26:08.239Z,32576
2018-06-13T10:27:08.274Z,32320
2018-06-13T10:28:08.507Z,32096
2018-06-13T10:29:08.264Z,32032
2018-06-13T10:30:08.506Z,31840
2018-06-13T10:31:08.387Z,31424
2018-06-13T10:32:08.495Z,31136
2018-06-13T10:33:07.996Z,31264
2018-06-13T10:34:08.512Z,31168
2018-06-13T10:35:08.386Z,30816
2018-06-13T10:36:08.010Z,30400
2018-06-13T10:37:08.550Z,30496
2018-06-13T10:38:08.302Z,30816
2018-06-13T10:39:08.035Z,30976
2018-06-13T10:40:08.537Z,30720
2018-06-13T10:41:08.290Z,30400
2018-06-13T10:42:08.294Z,30272
2018-06-13T10:43:08.562Z,30272
2018-06-13T10:44:08.327Z,30432
2018-06-13T10:45:08.057Z,30688
2018-06-13T10:46:08.047Z,30752
2018-06-13T10:47:07.798Z,30400
2018-06-13T10:48:08.370Z,30304
2018-06-13T10:49:08.400Z,30400
2018-06-13T10:50:08.314Z,30752
2018-06-13T10:51:08.684Z,31072
2018-06-13T10:52:08.344Z,31296
2018-06-13T10:53:08.406Z,31232
2018-06-13T10:54:08.381Z,31264
2018-06-13T10:55:08.353Z,31328
2018-06-13T10:56:08.409Z,31360
2018-06-13T10:57:08.136Z,31424
2018-06-13T10:58:08.366Z,31040
2018-06-13T10:59:08.143Z,30336
2018-06-13T11:00:08.403Z,29920
2018-06-13T11:01:08.672Z,30112
2018-06-13T11:02:07.964Z,30592
2018-06-13T11:03:08.436Z,30912
2018-06-13T11:04:08.456Z,30784
2018-06-13T11:05:08.660Z,30112
2018-06-13T11:06:08.436Z,29824
2018-06-13T11:07:08.422Z,29312
2018-06-13T11:08:08.675Z,28576
2018-06-13T11:09:08.679Z,28032
2018-06-13T11:10:08.679Z,27776
2018-06-13T11:11:08.174Z,27776
2018-06-13T11:12:08.741Z,28576
2018-06-13T11:13:08.694Z,29760
2018-06-13T11:14:08.690Z,30880
2018-06-13T11:15:08.443Z,31360
2018-06-13T11:16:08.446Z,31232
2018-06-13T11:17:08.460Z,31296
2018-06-13T11:18:08.464Z,31264
2018-06-13T11:19:09.083Z,30912
2018-06-13T11:20:08.524Z,30880
2018-06-13T11:21:08.570Z,30624
2018-06-13T11:22:08.271Z,30656
2018-06-13T11:23:08.505Z,30848
2018-06-13T11:24:08.249Z,30816
2018-06-13T11:25:08.557Z,31200
2018-06-13T11:26:08.334Z,31584
2018-06-13T11:27:08.554Z,31712
2018-06-13T11:28:08.522Z,31712
2018-06-13T11:29:08.781Z,31584
2018-06-13T11:30:08.817Z,31552
2018-06-13T11:31:08.559Z,31808
2018-06-13T11:32:08.784Z,31904
2018-06-13T11:33:08.573Z,31968
2018-06-13T11:34:08.810Z,31840
2018-06-13T11:35:08.561Z,31584
2018-06-13T11:36:08.570Z,31264
2018-06-13T11:37:08.618Z,30848
2018-06-13T11:38:08.609Z,30272
2018-06-13T11:39:08.885Z,29792
2018-06-13T11:40:08.578Z,29344
2018-06-13T11:41:09.074Z,28768
2018-06-13T11:42:08.843Z,28064
2018-06-13T11:43:08.860Z,27264
2018-06-13T11:44:08.643Z,26368
2018-06-13T11:45:09.097Z,25472
2018-06-13T11:46:08.879Z,24864
2018-06-13T11:47:08.920Z,24512
2018-06-13T11:48:09.085Z,24416
2018-06-13T11:49:08.946Z,24352
2018-06-13T11:50:08.401Z,24160
2018-06-13T11:51:08.387Z,23648
2018-06-13T11:52:08.641Z,23008
2018-06-13T11:53:08.383Z,22624
2018-06-13T11:54:08.419Z,22176
2018-06-13T11:55:09.131Z,21792
2018-06-13T11:56:08.663Z,21600
2018-06-13T11:57:08.971Z,21568
2018-06-13T11:58:08.692Z,21504
